createdAt,value
2023-01-25T00:00:54.068Z,156581.72
2023-01-25T00:03:27.746Z,156591.00
2023-01-25T00:06:01.957Z,156576.44
2023-01-25T00:08:30.961Z,156581.72
2023-01-25T00:11:00.175Z,156575.09
2023-01-25T00:13:28.051Z,156572.44
2023-01-25T00:16:03.799Z,156565.81
2023-01-25T00:18:32.049Z,156560.56
2023-01-25T00:21:00.114Z,156571.13
2023-01-25T00:23:27.750Z,156557.88
2023-01-25T00:25:59.200Z,156559.19
2023-01-25T00:28:27.233Z,156530.06
2023-01-25T00:31:03.178Z,156540.69
2023-01-25T00:33:40.830Z,156520.81
2023-01-25T00:36:41.078Z,156531.38
2023-01-25T00:39:13.196Z,156528.75
2023-01-25T00:41:41.478Z,156539.38
2023-01-25T00:44:09.002Z,156510.19
2023-01-25T00:46:37.174Z,156495.63
2023-01-25T00:49:08.005Z,156515.50
2023-01-25T00:51:36.444Z,156518.19
2023-01-25T00:54:04.317Z,156506.25
2023-01-25T00:56:32.762Z,156522.13
2023-01-25T00:59:00.396Z,156519.50
2023-01-25T01:01:28.851Z,156510.19
2023-01-25T01:03:56.399Z,156510.19
2023-01-25T01:06:24.706Z,156507.56
2023-01-25T01:08:54.290Z,156502.25
2023-01-25T01:11:23.858Z,156502.25
2023-01-25T01:13:51.750Z,156473.16
2023-01-25T01:16:20.299Z,156451.97
2023-01-25T01:18:48.148Z,156479.75
2023-01-25T01:21:16.718Z,156481.09
2023-01-25T01:23:44.783Z,156462.59
2023-01-25T01:26:15.788Z,156462.59
2023-01-25T01:28:43.751Z,156444.03
2023-01-25T01:31:15.081Z,156436.09
2023-01-25T01:33:51.741Z,156428.16
2023-01-25T01:36:22.257Z,156417.56
2023-01-25T01:38:49.925Z,156420.22
2023-01-25T01:41:18.627Z,156424.16
2023-01-25T01:43:50.775Z,156426.81
2023-01-25T01:46:29.387Z,156416.25
2023-01-25T01:49:04.267Z,156407.00
2023-01-25T01:51:42.710Z,156387.13
2023-01-25T01:54:18.216Z,156377.84
2023-01-25T01:57:09.471Z,156389.75
2023-01-25T02:00:07.422Z,156385.81
2023-01-25T02:02:42.082Z,156384.44
2023-01-25T02:05:41.231Z,156358.03
2023-01-25T02:08:13.636Z,156356.66
2023-01-25T02:10:42.765Z,156351.41
2023-01-25T02:13:11.765Z,156338.16
2023-01-25T02:15:42.757Z,156332.88
2023-01-25T02:18:12.040Z,156323.63
2023-01-25T02:20:43.598Z,156328.88
2023-01-25T02:23:17.879Z,156323.63
2023-01-25T02:25:45.737Z,156319.63
2023-01-25T02:28:46.206Z,156301.09
2023-01-25T02:31:15.181Z,156299.78
2023-01-25T02:33:43.405Z,156289.22
2023-01-25T02:36:12.117Z,156298.47
2023-01-25T02:38:44.367Z,156303.75
2023-01-25T02:41:36.880Z,156286.53
2023-01-25T02:44:13.836Z,156285.22
2023-01-25T02:46:45.352Z,156291.84
2023-01-25T02:49:15.946Z,156272.00
2023-01-25T02:51:47.735Z,156277.28
2023-01-25T02:54:18.175Z,156277.28
2023-01-25T02:56:46.075Z,156275.97
2023-01-25T02:59:14.766Z,156264.06
2023-01-25T03:01:47.259Z,156253.50
2023-01-25T03:04:15.966Z,156256.13
2023-01-25T03:06:44.407Z,156262.75
2023-01-25T03:09:13.282Z,156264.06
2023-01-25T03:11:46.581Z,156269.38
2023-01-25T03:14:15.150Z,156256.13
2023-01-25T03:16:42.898Z,156258.75
2023-01-25T03:19:11.523Z,156241.59
2023-01-25T03:21:41.355Z,156232.34
2023-01-25T03:24:10.718Z,156232.34
2023-01-25T03:27:02.117Z,156175.44
2023-01-25T03:29:41.713Z,156174.09
2023-01-25T03:32:15.161Z,156175.44
2023-01-25T03:34:43.560Z,156155.63
2023-01-25T03:37:11.405Z,156145.03
2023-01-25T03:39:41.843Z,156131.78
2023-01-25T03:42:10.465Z,156137.09
2023-01-25T03:44:38.733Z,156117.25
2023-01-25T03:47:07.015Z,156102.72
2023-01-25T03:49:35.581Z,156101.41
2023-01-25T03:52:06.023Z,156084.19
2023-01-25T03:54:38.090Z,156061.72
2023-01-25T03:57:08.883Z,156052.47
2023-01-25T03:59:47.187Z,156041.88
2023-01-25T04:02:15.364Z,156032.66
2023-01-25T04:04:44.443Z,156028.66
2023-01-25T04:07:14.052Z,156036.63
2023-01-25T04:09:42.646Z,156031.34
2023-01-25T04:12:12.484Z,156024.72
2023-01-25T04:14:44.569Z,156014.13
2023-01-25T04:17:19.739Z,156020.75
2023-01-25T04:20:07.283Z,156012.81
2023-01-25T04:22:40.060Z,156006.19
2023-01-25T04:25:10.558Z,156006.19
2023-01-25T04:27:44.380Z,156004.88
2023-01-25T04:30:16.503Z,155998.28
2023-01-25T04:32:46.308Z,155991.66
2023-01-25T04:35:33.354Z,155974.50
2023-01-25T04:38:03.196Z,155979.75
2023-01-25T04:40:41.221Z,155955.97
2023-01-25T04:43:09.375Z,155957.28
2023-01-25T04:45:37.847Z,155944.06
2023-01-25T04:48:13.022Z,155934.84
2023-01-25T04:50:48.841Z,155926.91
2023-01-25T04:53:17.419Z,155922.94
2023-01-25T04:55:47.439Z,155904.47
2023-01-25T04:58:15.988Z,155907.09
2023-01-25T05:00:45.595Z,155901.78
2023-01-25T05:03:13.594Z,155881.97
2023-01-25T05:05:48.803Z,155862.19
2023-01-25T05:08:21.480Z,155864.81
2023-01-25T05:10:49.986Z,155859.50
2023-01-25T05:13:29.275Z,155843.66
2023-01-25T05:16:17.601Z,155833.06
2023-01-25T05:18:48.784Z,155833.06
2023-01-25T05:21:44.700Z,155843.66
2023-01-25T05:24:14.414Z,155856.88
2023-01-25T05:27:01.622Z,155847.66
2023-01-25T05:29:40.927Z,155847.66
2023-01-25T05:32:12.541Z,155851.59
2023-01-25T05:34:40.544Z,155854.22
2023-01-25T05:37:11.664Z,155856.88
2023-01-25T05:39:43.039Z,155868.78
2023-01-25T05:42:13.409Z,155864.81
2023-01-25T05:44:41.877Z,155876.72
2023-01-25T05:47:16.089Z,155859.50
2023-01-25T05:49:44.472Z,155859.50
2023-01-25T05:52:19.049Z,155867.44
2023-01-25T05:54:47.263Z,155863.50
2023-01-25T05:57:17.047Z,155880.66
2023-01-25T05:59:45.643Z,155893.88
2023-01-25T06:02:17.269Z,155885.94
2023-01-25T06:04:47.744Z,155893.88
2023-01-25T06:07:16.221Z,155892.56
2023-01-25T06:09:45.058Z,155850.28
2023-01-25T06:12:13.645Z,155891.25
2023-01-25T06:14:42.544Z,155899.16
2023-01-25T06:17:11.044Z,155901.78
2023-01-25T06:19:57.284Z,155909.72
2023-01-25T06:22:36.869Z,155895.19
2023-01-25T06:25:05.334Z,155896.53
2023-01-25T06:27:33.794Z,155893.88
2023-01-25T06:30:01.636Z,155888.56
2023-01-25T06:32:33.355Z,155901.78
2023-01-25T06:35:01.029Z,155916.31
2023-01-25T06:37:29.549Z,155922.94
2023-01-25T06:39:58.113Z,155928.22
2023-01-25T06:42:26.585Z,155940.13
2023-01-25T06:44:54.387Z,155950.69
2023-01-25T06:47:22.924Z,155944.06
2023-01-25T06:49:50.732Z,155944.06
2023-01-25T06:52:19.379Z,155938.81
2023-01-25T06:54:47.333Z,155936.16
2023-01-25T06:57:15.712Z,155938.81
2023-01-25T06:59:43.277Z,155936.16
2023-01-25T07:02:17.708Z,155938.81
2023-01-25T07:04:46.094Z,155950.69
2023-01-25T07:07:14.863Z,155961.28
2023-01-25T07:09:42.617Z,155963.91
2023-01-25T07:12:11.067Z,155969.19
2023-01-25T07:14:38.832Z,155974.50
2023-01-25T07:17:06.793Z,155977.13
2023-01-25T07:19:34.518Z,155983.75
2023-01-25T07:22:03.194Z,155978.44
2023-01-25T07:24:31.202Z,155979.75
2023-01-25T07:26:59.787Z,155987.72
2023-01-25T07:29:27.795Z,155995.66
2023-01-25T07:31:56.176Z,155989.03
2023-01-25T07:34:24.050Z,155985.06
2023-01-25T07:36:52.363Z,155996.97
2023-01-25T07:39:20.128Z,155981.13
2023-01-25T07:41:48.429Z,155962.59
2023-01-25T07:44:19.654Z,155962.59
2023-01-25T07:46:51.462Z,155962.59
2023-01-25T07:49:19.817Z,155975.81
2023-01-25T07:51:48.480Z,155977.13
2023-01-25T07:54:16.342Z,155981.13
2023-01-25T07:56:44.876Z,155987.72
2023-01-25T07:59:12.662Z,155983.75
2023-01-25T08:01:41.328Z,155977.13
2023-01-25T08:04:09.912Z,155973.19
2023-01-25T08:06:39.619Z,155977.13
2023-01-25T08:09:22.635Z,155965.22
2023-01-25T08:11:51.302Z,155979.75
2023-01-25T08:14:19.123Z,155999.59
2023-01-25T08:16:47.150Z,156010.19
2023-01-25T08:19:14.817Z,155996.97
2023-01-25T08:21:43.419Z,156010.19
2023-01-25T08:24:11.293Z,156010.19
2023-01-25T08:26:39.400Z,156022.09
2023-01-25T08:29:07.264Z,156033.97
2023-01-25T08:31:36.647Z,156049.81
2023-01-25T08:34:04.879Z,156057.78
2023-01-25T08:36:33.994Z,156051.16
2023-01-25T08:39:04.607Z,156047.19
2023-01-25T08:41:34.655Z,156053.78
2023-01-25T08:44:02.520Z,156044.56
2023-01-25T08:46:33.469Z,156036.63
2023-01-25T08:49:02.514Z,156039.25
2023-01-25T08:51:32.405Z,156023.41
2023-01-25T08:54:06.945Z,156039.25
2023-01-25T08:56:38.036Z,156045.88
2023-01-25T08:59:06.406Z,156052.47
2023-01-25T09:01:34.737Z,156065.72
2023-01-25T09:04:02.493Z,156077.56
2023-01-25T09:06:31.229Z,156089.50
2023-01-25T09:09:05.060Z,156077.56
2023-01-25T09:11:35.383Z,156073.63
2023-01-25T09:14:03.692Z,156059.09
2023-01-25T09:16:32.364Z,156048.50
2023-01-25T09:19:02.158Z,156073.63
2023-01-25T09:21:31.474Z,156061.72
2023-01-25T09:24:08.225Z,156056.41
2023-01-25T09:26:40.888Z,156052.47
2023-01-25T09:29:11.482Z,156049.81
2023-01-25T09:31:44.199Z,156047.19
2023-01-25T09:34:25.542Z,156040.56
2023-01-25T09:36:53.701Z,156055.09
2023-01-25T09:39:21.864Z,156055.09
2023-01-25T09:42:14.668Z,156052.47
2023-01-25T09:45:15.762Z,156052.47
2023-01-25T09:47:48.727Z,156068.34
2023-01-25T09:50:43.394Z,156081.56
2023-01-25T09:53:14.533Z,156085.53
2023-01-25T09:55:42.930Z,156085.53
2023-01-25T09:58:32.846Z,156100.09
2023-01-25T10:01:37.675Z,156101.41
2023-01-25T10:04:19.912Z,156113.31
2023-01-25T10:07:01.040Z,156133.09
2023-01-25T10:09:54.976Z,156141.09
2023-01-25T10:12:24.692Z,156145.03
2023-01-25T10:14:54.126Z,156151.63
2023-01-25T10:17:37.637Z,156137.09
2023-01-25T10:20:31.225Z,156137.09
2023-01-25T10:23:23.918Z,156152.94
2023-01-25T10:25:54.997Z,156159.56
2023-01-25T10:29:00.681Z,156145.03
2023-01-25T10:31:37.597Z,156139.72
2023-01-25T10:34:35.471Z,156149.00
2023-01-25T10:37:20.125Z,156147.69
2023-01-25T10:39:57.587Z,156159.56
2023-01-25T10:42:28.344Z,156145.03
2023-01-25T10:44:56.969Z,156138.41
2023-01-25T10:47:32.393Z,156134.47
2023-01-25T10:50:00.792Z,156145.03
2023-01-25T10:52:31.058Z,156133.09
2023-01-25T10:55:18.077Z,156113.31
2023-01-25T10:57:49.947Z,156113.31
2023-01-25T11:00:30.345Z,156111.94
2023-01-25T11:02:59.586Z,156108.03
2023-01-25T11:05:43.833Z,156105.34
2023-01-25T11:08:24.540Z,156114.63
2023-01-25T11:10:53.944Z,156125.19
2023-01-25T11:13:26.453Z,156139.72
2023-01-25T11:16:17.966Z,156139.72
2023-01-25T11:18:54.567Z,156147.69
2023-01-25T11:21:28.029Z,156176.78
2023-01-25T11:24:11.521Z,156195.28
2023-01-25T11:26:41.123Z,156205.88
2023-01-25T11:29:17.367Z,156193.97
2023-01-25T11:31:51.009Z,156192.66
2023-01-25T11:34:21.573Z,156211.19
2023-01-25T11:37:03.023Z,156217.78
2023-01-25T11:39:49.209Z,156224.41
2023-01-25T11:42:43.377Z,156225.72
2023-01-25T11:45:34.778Z,156237.59
2023-01-25T11:48:11.971Z,156227.03
2023-01-25T11:50:48.270Z,156213.81
2023-01-25T11:53:34.965Z,156203.19
2023-01-25T11:56:09.265Z,156200.56
2023-01-25T11:58:54.817Z,156200.56
2023-01-25T12:01:34.114Z,156200.56
2023-01-25T12:04:20.701Z,156192.66
2023-01-25T12:07:14.296Z,156200.56
2023-01-25T12:10:01.914Z,156197.94
2023-01-25T12:12:36.284Z,156195.28
2023-01-25T12:15:27.348Z,156187.34
2023-01-25T12:18:01.398Z,156195.28
2023-01-25T12:20:41.125Z,156190.00
2023-01-25T12:23:22.361Z,156207.19
2023-01-25T12:26:21.371Z,156192.66
2023-01-25T12:28:52.930Z,156197.94
2023-01-25T12:31:38.602Z,156197.94
2023-01-25T12:34:16.942Z,156212.50
2023-01-25T12:36:47.588Z,156221.72
2023-01-25T12:39:30.926Z,156238.97
2023-01-25T12:42:10.346Z,156245.56
2023-01-25T12:44:46.885Z,156252.13
2023-01-25T12:47:24.429Z,156273.34
2023-01-25T12:49:58.648Z,156265.38
2023-01-25T12:52:32.632Z,156285.22
2023-01-25T12:55:08.303Z,156272.00
2023-01-25T12:57:52.011Z,156282.59
2023-01-25T13:00:32.880Z,156274.66
2023-01-25T13:03:28.820Z,156286.53
2023-01-25T13:05:59.216Z,156294.53
2023-01-25T13:08:58.796Z,156299.78
2023-01-25T13:11:40.987Z,156298.47
2023-01-25T13:14:18.252Z,156311.69
2023-01-25T13:16:53.910Z,156313.00
2023-01-25T13:19:30.185Z,156322.31
2023-01-25T13:22:00.054Z,156328.88
2023-01-25T13:24:32.533Z,156322.31
2023-01-25T13:27:02.062Z,156336.84
2023-01-25T13:29:32.941Z,156339.47
2023-01-25T13:32:02.698Z,156307.72
2023-01-25T13:34:36.356Z,156307.72
2023-01-25T13:37:26.175Z,156303.75
2023-01-25T13:39:55.967Z,156285.22
2023-01-25T13:42:26.361Z,156299.78
2023-01-25T13:45:00.787Z,156289.22
2023-01-25T13:47:39.223Z,156262.75
2023-01-25T13:50:25.681Z,156286.53
2023-01-25T13:53:02.326Z,156266.72
2023-01-25T13:55:39.545Z,156269.38
2023-01-25T13:58:15.345Z,156242.91
2023-01-25T14:01:09.275Z,156279.91
2023-01-25T14:03:44.409Z,156283.91
2023-01-25T14:06:19.333Z,156299.78
2023-01-25T14:08:48.146Z,156295.84
2023-01-25T14:11:43.414Z,156297.16
2023-01-25T14:14:14.977Z,156295.84
2023-01-25T14:16:42.922Z,156301.09
2023-01-25T14:19:26.593Z,156307.72
2023-01-25T14:22:13.064Z,156306.41
2023-01-25T14:24:41.558Z,156314.31
2023-01-25T14:27:13.838Z,156309.06
2023-01-25T14:29:47.881Z,156302.44
2023-01-25T14:32:21.260Z,156306.41
2023-01-25T14:34:49.261Z,156311.69
2023-01-25T14:37:21.484Z,156319.63
2023-01-25T14:39:51.470Z,156319.63
2023-01-25T14:42:19.796Z,156330.25
2023-01-25T14:44:48.423Z,156320.94
2023-01-25T14:47:29.917Z,156324.94
2023-01-25T14:50:35.468Z,156330.25
2023-01-25T14:53:24.246Z,156326.25
2023-01-25T14:55:52.799Z,156315.69
2023-01-25T14:58:24.321Z,156314.31
2023-01-25T15:00:58.198Z,156299.78
2023-01-25T15:03:27.598Z,156313.00
2023-01-25T15:06:05.175Z,156311.69
2023-01-25T15:08:38.246Z,156319.63
2023-01-25T15:11:40.336Z,156301.09
2023-01-25T15:14:20.339Z,156306.41
2023-01-25T15:16:48.655Z,156295.84
2023-01-25T15:19:30.108Z,156294.53
2023-01-25T15:22:00.679Z,156265.38
2023-01-25T15:24:29.089Z,156286.53
2023-01-25T15:26:57.614Z,156297.16
2023-01-25T15:29:29.313Z,156303.75
2023-01-25T15:31:57.927Z,156310.38
2023-01-25T15:34:29.670Z,156302.44
2023-01-25T15:36:58.067Z,156299.78
2023-01-25T15:39:26.931Z,156277.28
2023-01-25T15:41:55.473Z,156287.91
2023-01-25T15:44:23.368Z,156301.09
2023-01-25T15:46:52.275Z,156311.69
2023-01-25T15:49:28.223Z,156323.63
2023-01-25T15:51:56.484Z,156335.50
2023-01-25T15:54:24.715Z,156342.13
2023-01-25T15:56:56.422Z,156354.03
2023-01-25T15:59:24.710Z,156363.28
2023-01-25T16:01:53.242Z,156354.03
2023-01-25T16:04:21.132Z,156322.31
2023-01-25T16:06:53.764Z,156315.69
2023-01-25T16:09:24.192Z,156318.31
2023-01-25T16:11:54.994Z,156339.47
2023-01-25T16:14:29.363Z,156343.47
2023-01-25T16:17:02.871Z,156338.16
2023-01-25T16:19:31.628Z,156320.94
2023-01-25T16:21:59.577Z,156319.63
2023-01-25T16:24:27.344Z,156317.00
2023-01-25T16:26:57.868Z,156301.09
2023-01-25T16:29:26.422Z,156320.94
2023-01-25T16:31:55.324Z,156309.06
2023-01-25T16:34:23.802Z,156311.69
2023-01-25T16:36:53.475Z,156314.31
2023-01-25T16:39:23.385Z,156310.38
2023-01-25T16:41:51.848Z,156319.63
2023-01-25T16:44:19.958Z,156302.44
2023-01-25T16:46:51.261Z,156293.16
2023-01-25T16:49:26.789Z,156298.47
2023-01-25T16:51:55.460Z,156287.91
2023-01-25T16:54:25.163Z,156290.53
2023-01-25T16:56:54.578Z,156295.84
2023-01-25T16:59:23.661Z,156283.91
2023-01-25T17:01:52.076Z,156281.28
2023-01-25T17:04:20.445Z,156277.28
2023-01-25T17:06:50.916Z,156256.13
2023-01-25T17:09:24.110Z,156249.50
2023-01-25T17:11:56.304Z,156264.06
2023-01-25T17:14:24.980Z,156274.66
2023-01-25T17:16:53.999Z,156282.59
2023-01-25T17:19:21.950Z,156275.97
2023-01-25T17:21:50.167Z,156286.53
2023-01-25T17:24:21.157Z,156286.53
2023-01-25T17:26:49.408Z,156295.84
2023-01-25T17:29:17.189Z,156298.47
2023-01-25T17:31:45.681Z,156302.44
2023-01-25T17:34:16.383Z,156307.72
2023-01-25T17:36:45.422Z,156302.44
2023-01-25T17:39:31.312Z,156307.72
2023-01-25T17:41:59.780Z,156311.69
2023-01-25T17:44:27.577Z,156297.16
2023-01-25T17:46:56.192Z,156294.53
2023-01-25T17:49:25.254Z,156287.91
2023-01-25T17:51:53.897Z,156310.38
2023-01-25T17:54:21.557Z,156297.16
2023-01-25T17:56:50.158Z,156282.59
2023-01-25T17:59:17.833Z,156285.22
2023-01-25T18:01:46.151Z,156311.69
2023-01-25T18:04:17.617Z,156311.69
2023-01-25T18:06:46.179Z,156307.72
2023-01-25T18:09:14.283Z,156306.41
2023-01-25T18:11:42.710Z,156305.06
2023-01-25T18:14:15.405Z,156315.69
2023-01-25T18:16:43.733Z,156307.72
2023-01-25T18:19:12.200Z,156309.06
2023-01-25T18:21:42.287Z,156314.31
2023-01-25T18:24:36.367Z,156318.31
2023-01-25T18:27:15.708Z,156323.63
2023-01-25T18:30:08.815Z,156330.25
2023-01-25T18:32:36.907Z,156330.25
2023-01-25T18:35:05.782Z,156328.88
2023-01-25T18:37:39.849Z,156320.94
2023-01-25T18:40:09.490Z,156319.63
2023-01-25T18:42:38.638Z,156313.00
2023-01-25T18:45:09.859Z,156306.41
2023-01-25T18:47:38.454Z,156294.53
2023-01-25T18:50:08.301Z,156299.78
2023-01-25T18:52:36.861Z,156311.69
2023-01-25T18:55:05.362Z,156318.31
2023-01-25T18:57:34.058Z,156323.63
2023-01-25T19:00:01.879Z,156332.88
2023-01-25T19:02:30.152Z,156335.50
2023-01-25T19:04:57.958Z,156340.81
2023-01-25T19:07:26.540Z,156346.09
2023-01-25T19:09:54.364Z,156344.78
2023-01-25T19:12:22.730Z,156356.66
2023-01-25T19:14:50.504Z,156343.47
2023-01-25T19:17:18.994Z,156343.47
2023-01-25T19:19:46.927Z,156348.72
2023-01-25T19:22:15.398Z,156346.09
2023-01-25T19:24:43.480Z,156351.41
2023-01-25T19:27:11.663Z,156332.88
2023-01-25T19:29:39.745Z,156346.09
2023-01-25T19:32:08.261Z,156334.19
2023-01-25T19:34:36.161Z,156315.69
2023-01-25T19:37:04.714Z,156332.88
2023-01-25T19:39:32.579Z,156336.84
2023-01-25T19:42:01.082Z,156336.84
2023-01-25T19:44:29.097Z,156338.16
2023-01-25T19:46:57.306Z,156346.09
2023-01-25T19:49:25.484Z,156335.50
2023-01-25T19:51:53.720Z,156322.31
2023-01-25T19:54:23.256Z,156314.31
2023-01-25T19:56:51.881Z,156317.00
2023-01-25T19:59:23.585Z,156315.69
2023-01-25T20:01:52.784Z,156320.94
2023-01-25T20:04:23.559Z,156313.00
2023-01-25T20:06:53.068Z,156311.69
2023-01-25T20:09:27.734Z,156302.44
2023-01-25T20:11:57.673Z,156319.63
2023-01-25T20:14:25.665Z,156334.19
2023-01-25T20:16:54.651Z,156307.72
2023-01-25T20:19:22.728Z,156326.25
2023-01-25T20:21:51.405Z,156310.38
2023-01-25T20:24:19.296Z,156317.00
2023-01-25T20:26:48.248Z,156332.88
2023-01-25T20:29:16.377Z,156336.84
2023-01-25T20:31:46.246Z,156335.50
2023-01-25T20:34:19.430Z,156335.50
2023-01-25T20:36:48.388Z,156343.47
2023-01-25T20:39:19.143Z,156343.47
2023-01-25T20:41:48.444Z,156358.03
2023-01-25T20:44:18.405Z,156354.03
2023-01-25T20:46:47.083Z,156358.03
2023-01-25T20:49:17.287Z,156359.34
2023-01-25T20:51:47.780Z,156360.66
2023-01-25T20:54:16.547Z,156361.97
2023-01-25T20:56:48.078Z,156365.97
2023-01-25T20:59:18.359Z,156367.28
2023-01-25T21:01:47.122Z,156371.25
2023-01-25T21:04:15.289Z,156383.13
2023-01-25T21:06:43.868Z,156385.81
2023-01-25T21:09:12.773Z,156387.13
2023-01-25T21:11:41.842Z,156384.44
2023-01-25T21:14:09.593Z,156383.13
2023-01-25T21:16:38.065Z,156380.50
2023-01-25T21:19:07.524Z,156391.06
2023-01-25T21:21:36.345Z,156396.38
2023-01-25T21:24:06.023Z,156397.69
2023-01-25T21:26:36.004Z,156395.06
2023-01-25T21:29:05.078Z,156403.00
2023-01-25T21:31:36.690Z,156405.63
2023-01-25T21:34:05.831Z,156407.00
2023-01-25T21:36:34.214Z,156409.63
2023-01-25T21:39:02.826Z,156384.44
2023-01-25T21:41:34.084Z,156380.50
2023-01-25T21:44:21.074Z,156385.81
2023-01-25T21:47:15.758Z,156396.38
2023-01-25T21:49:55.871Z,156389.75
2023-01-25T21:52:24.671Z,156392.44
2023-01-25T21:54:52.344Z,156404.31
2023-01-25T21:57:21.008Z,156384.44
2023-01-25T21:59:49.343Z,156403.00
2023-01-25T22:02:17.627Z,156397.69
2023-01-25T22:04:45.674Z,156405.63
2023-01-25T22:07:14.824Z,156409.63
2023-01-25T22:09:42.979Z,156399.06
2023-01-25T22:12:12.663Z,156414.91
2023-01-25T22:14:41.054Z,156414.91
2023-01-25T22:17:09.706Z,156401.69
2023-01-25T22:19:37.524Z,156418.88
2023-01-25T22:22:06.012Z,156417.56
2023-01-25T22:24:34.678Z,156438.72
2023-01-25T22:27:09.138Z,156425.47
2023-01-25T22:29:37.308Z,156422.84
2023-01-25T22:32:06.265Z,156405.63
2023-01-25T22:34:34.090Z,156417.56
2023-01-25T22:37:02.743Z,156418.88
2023-01-25T22:39:30.522Z,156404.31
2023-01-25T22:41:58.773Z,156409.63
2023-01-25T22:44:26.602Z,156409.63
2023-01-25T22:46:55.120Z,156428.16
2023-01-25T22:49:23.095Z,156425.47
2023-01-25T22:51:51.599Z,156436.09
2023-01-25T22:54:19.475Z,156420.22
2023-01-25T22:56:47.639Z,156446.66
2023-01-25T22:59:19.115Z,156437.41
2023-01-25T23:01:47.686Z,156438.72
2023-01-25T23:04:15.735Z,156436.09
2023-01-25T23:06:43.977Z,156441.41
2023-01-25T23:09:11.855Z,156440.03
2023-01-25T23:11:40.320Z,156444.03
2023-01-25T23:14:30.261Z,156441.41
2023-01-25T23:17:17.256Z,156437.41
2023-01-25T23:19:45.593Z,156441.41
2023-01-25T23:22:14.167Z,156422.84
2023-01-25T23:24:41.829Z,156421.53
2023-01-25T23:27:09.994Z,156418.88
2023-01-25T23:29:37.821Z,156416.25
2023-01-25T23:32:06.235Z,156422.84
2023-01-25T23:34:37.432Z,156437.41
2023-01-25T23:37:06.037Z,156442.72
2023-01-25T23:39:33.923Z,156451.97
2023-01-25T23:42:02.136Z,156457.28
2023-01-25T23:44:29.918Z,156463.91
2023-01-25T23:46:58.093Z,156475.81
2023-01-25T23:49:25.783Z,156475.81
2023-01-25T23:51:53.865Z,156485.06
2023-01-25T23:54:21.672Z,156499.63
2023-01-25T23:56:50.236Z,156498.31
2023-01-25T23:59:17.968Z,156500.94
